createdAt,value
2022-12-08T00:01:55.650Z,12.88
2022-12-08T00:04:28.323Z,14.82
2022-12-08T00:07:19.660Z,14.60
2022-12-08T00:09:52.185Z,13.63
2022-12-08T00:12:24.899Z,12.65
2022-12-08T00:14:57.480Z,18.83
2022-12-08T00:17:29.957Z,13.35
2022-12-08T00:20:02.587Z,14.23
2022-12-08T00:22:35.091Z,14.75
2022-12-08T00:25:07.841Z,16.23
2022-12-08T00:27:40.416Z,21.15
2022-12-08T00:30:13.250Z,20.70
2022-12-08T00:32:45.933Z,17.58
2022-12-08T00:35:18.620Z,20.30
2022-12-08T00:37:53.964Z,20.10
2022-12-08T00:40:29.316Z,17.90
2022-12-08T00:43:01.811Z,20.02
2022-12-08T00:45:34.348Z,21.58
2022-12-08T00:48:07.176Z,19.02
2022-12-08T00:50:39.703Z,20.83
2022-12-08T00:53:12.261Z,23.00
2022-12-08T00:55:44.755Z,22.27
2022-12-08T00:58:17.343Z,24.42
2022-12-08T01:00:50.080Z,18.73
2022-12-08T01:03:22.696Z,18.85
2022-12-08T01:05:55.355Z,19.42
2022-12-08T01:08:27.931Z,18.45
2022-12-08T01:11:11.963Z,15.98
2022-12-08T01:13:47.443Z,17.20
2022-12-08T01:16:29.588Z,14.10
2022-12-08T01:19:03.792Z,18.45
2022-12-08T01:21:36.340Z,20.55
2022-12-08T01:24:18.933Z,16.15
2022-12-08T01:26:51.678Z,16.58
2022-12-08T01:29:24.474Z,13.77
2022-12-08T01:31:57.126Z,15.40
2022-12-08T01:34:29.701Z,16.05
2022-12-08T01:37:02.270Z,19.88
2022-12-08T01:39:35.659Z,16.05
2022-12-08T01:42:21.780Z,19.05
2022-12-08T01:44:59.522Z,15.32
2022-12-08T01:47:47.187Z,17.95
2022-12-08T01:50:22.096Z,17.10
2022-12-08T01:53:10.084Z,14.90
2022-12-08T01:55:53.501Z,13.45
2022-12-08T01:58:35.642Z,13.25
2022-12-08T02:01:08.469Z,12.48
2022-12-08T02:03:49.097Z,11.32
2022-12-08T02:06:21.940Z,12.18
2022-12-08T02:08:55.286Z,10.23
2022-12-08T02:11:27.916Z,11.35
2022-12-08T02:14:06.391Z,11.50
2022-12-08T02:17:58.328Z,12.60
2022-12-08T02:20:48.230Z,12.15
2022-12-08T02:23:36.826Z,9.68
2022-12-08T02:26:46.436Z,9.18
2022-12-08T02:29:52.174Z,11.75
2022-12-08T02:33:18.734Z,15.70
2022-12-08T02:36:02.911Z,9.35
2022-12-08T02:39:05.918Z,11.02
2022-12-08T02:41:47.265Z,9.55
2022-12-08T02:44:36.236Z,8.52
2022-12-08T02:47:16.564Z,8.20
2022-12-08T02:49:49.258Z,6.78
2022-12-08T02:52:21.611Z,7.13
2022-12-08T02:55:03.478Z,7.05
2022-12-08T02:57:54.011Z,6.55
2022-12-08T03:00:48.653Z,7.32
2022-12-08T03:03:46.009Z,6.00
2022-12-08T03:06:48.761Z,7.55
2022-12-08T03:09:46.869Z,7.65
2022-12-08T03:12:43.538Z,8.68
2022-12-08T03:15:21.449Z,7.50
2022-12-08T03:17:59.426Z,9.20
2022-12-08T03:20:35.030Z,8.85
2022-12-08T03:23:13.168Z,7.93
2022-12-08T03:25:59.600Z,10.27
2022-12-08T03:28:32.318Z,8.15
2022-12-08T03:31:12.180Z,13.63
2022-12-08T03:33:51.237Z,10.25
2022-12-08T03:36:25.075Z,13.23
2022-12-08T03:38:57.723Z,14.93
2022-12-08T03:41:30.293Z,14.90
2022-12-08T03:44:02.950Z,17.02
2022-12-08T03:46:35.479Z,16.58
2022-12-08T03:49:08.034Z,16.92
2022-12-08T03:51:40.746Z,18.52
2022-12-08T03:54:13.552Z,21.63
2022-12-08T03:56:46.165Z,17.35
2022-12-08T03:59:18.741Z,21.85
2022-12-08T04:01:51.346Z,24.98
2022-12-08T04:04:24.015Z,25.38
2022-12-08T04:06:56.737Z,22.58
2022-12-08T04:09:29.454Z,23.65
2022-12-08T04:12:02.000Z,21.58
2022-12-08T04:14:34.707Z,26.25
2022-12-08T04:17:07.327Z,22.40
2022-12-08T04:19:40.947Z,23.80
2022-12-08T04:22:13.513Z,17.92
2022-12-08T04:24:46.026Z,19.83
2022-12-08T04:27:18.590Z,17.40
2022-12-08T04:29:51.150Z,23.38
2022-12-08T04:32:23.724Z,18.48
2022-12-08T04:34:56.264Z,14.68
2022-12-08T04:37:29.093Z,17.20
2022-12-08T04:40:01.778Z,13.20
2022-12-08T04:42:34.580Z,17.25
2022-12-08T04:45:07.651Z,12.20
2022-12-08T04:47:40.319Z,13.00
2022-12-08T04:50:13.198Z,12.45
2022-12-08T04:52:45.825Z,10.18
2022-12-08T04:55:18.643Z,11.95
2022-12-08T04:57:51.369Z,9.07
2022-12-08T05:00:23.949Z,11.55
2022-12-08T05:02:56.518Z,8.82
2022-12-08T05:05:29.132Z,6.88
2022-12-08T05:08:01.797Z,7.22
2022-12-08T05:10:34.662Z,6.53
2022-12-08T05:13:07.531Z,4.50
2022-12-08T05:15:40.097Z,5.20
2022-12-08T05:18:14.657Z,5.07
2022-12-08T05:20:47.449Z,3.50
2022-12-08T05:23:20.022Z,5.15
2022-12-08T05:25:53.342Z,5.55
2022-12-08T05:28:41.176Z,5.75
2022-12-08T05:31:19.571Z,8.05
2022-12-08T05:34:02.922Z,4.35
2022-12-08T05:36:36.387Z,4.07
2022-12-08T05:39:15.098Z,5.43
2022-12-08T05:41:47.702Z,4.63
2022-12-08T05:44:20.313Z,3.70
2022-12-08T05:46:53.148Z,7.07
2022-12-08T05:49:28.867Z,4.25
2022-12-08T05:52:09.974Z,3.63
2022-12-08T05:54:44.674Z,2.33
2022-12-08T05:57:22.203Z,2.10
2022-12-08T05:59:59.317Z,5.28
2022-12-08T06:02:39.221Z,4.80
2022-12-08T06:05:14.585Z,5.28
2022-12-08T06:07:47.418Z,4.75
2022-12-08T06:10:21.394Z,3.28
2022-12-08T06:12:54.233Z,2.78
2022-12-08T06:15:28.300Z,3.42
2022-12-08T06:18:01.223Z,1.80
2022-12-08T06:20:40.789Z,1.85
2022-12-08T06:23:16.850Z,2.97
2022-12-08T06:25:50.126Z,2.30
2022-12-08T06:28:25.229Z,2.22
2022-12-08T06:31:01.116Z,5.68
2022-12-08T06:33:33.749Z,4.88
2022-12-08T06:36:08.079Z,3.45
2022-12-08T06:38:44.071Z,6.13
2022-12-08T06:41:18.617Z,3.72
2022-12-08T06:43:54.829Z,3.70
2022-12-08T06:46:27.658Z,4.28
2022-12-08T06:49:00.258Z,4.93
2022-12-08T06:51:37.008Z,4.57
2022-12-08T06:54:10.901Z,2.80
2022-12-08T06:56:47.154Z,2.30
2022-12-08T06:59:20.259Z,2.90
2022-12-08T07:01:53.084Z,3.88
2022-12-08T07:04:27.812Z,4.13
2022-12-08T07:07:03.510Z,3.20
2022-12-08T07:09:42.062Z,2.90
2022-12-08T07:12:18.135Z,6.10
2022-12-08T07:14:51.052Z,6.05
2022-12-08T07:17:24.263Z,10.85
2022-12-08T07:19:59.796Z,11.23
2022-12-08T07:22:37.373Z,9.25
2022-12-08T07:25:10.212Z,12.68
2022-12-08T07:27:53.165Z,13.93
2022-12-08T07:33:08.221Z,18.77
2022-12-08T07:36:26.380Z,13.75
2022-12-08T07:39:04.413Z,21.00
2022-12-08T07:41:49.338Z,14.45
2022-12-08T07:44:27.687Z,18.23
2022-12-08T07:47:00.368Z,15.60
2022-12-08T07:49:35.394Z,16.65
2022-12-08T07:52:08.229Z,16.38
2022-12-08T07:54:40.801Z,23.02
2022-12-08T07:57:13.400Z,19.10
2022-12-08T07:59:45.945Z,19.90
2022-12-08T08:02:25.736Z,17.40
2022-12-08T08:04:58.997Z,16.33
2022-12-08T08:07:32.181Z,13.98
2022-12-08T08:10:06.890Z,12.35
2022-12-08T08:12:40.394Z,16.85
2022-12-08T08:15:13.394Z,13.38
2022-12-08T08:17:53.317Z,21.73
2022-12-08T08:20:27.087Z,23.27
2022-12-08T08:22:59.874Z,11.65
2022-12-08T08:25:32.473Z,14.30
2022-12-08T08:28:05.230Z,13.85
2022-12-08T08:30:37.946Z,13.10
2022-12-08T08:33:13.473Z,15.02
2022-12-08T08:35:46.425Z,14.43
2022-12-08T08:38:20.961Z,22.45
2022-12-08T08:40:54.174Z,16.23
2022-12-08T08:43:36.075Z,15.90
2022-12-08T08:46:13.649Z,27.40
2022-12-08T08:48:47.977Z,18.00
2022-12-08T08:51:20.618Z,18.00
2022-12-08T08:54:02.208Z,20.75
2022-12-08T08:56:35.250Z,21.73
2022-12-08T08:59:08.109Z,20.45
2022-12-08T09:01:40.933Z,20.52
2022-12-08T09:04:19.504Z,25.77
2022-12-08T09:06:52.414Z,23.10
2022-12-08T09:09:33.327Z,20.42
2022-12-08T09:12:07.365Z,19.67
2022-12-08T09:14:46.167Z,18.80
2022-12-08T09:17:21.835Z,19.88
2022-12-08T09:19:57.210Z,20.52
2022-12-08T09:22:32.567Z,20.17
2022-12-08T09:25:05.961Z,17.92
2022-12-08T09:27:44.967Z,19.63
2022-12-08T09:30:18.825Z,14.23
2022-12-08T09:32:56.857Z,16.05
2022-12-08T09:35:45.865Z,15.70
2022-12-08T09:38:25.872Z,16.58
2022-12-08T09:41:00.367Z,13.75
2022-12-08T09:44:06.026Z,16.85
2022-12-08T09:46:44.214Z,17.92
2022-12-08T09:49:53.465Z,20.27
2022-12-08T09:52:36.523Z,20.92
2022-12-08T09:55:22.548Z,21.80
2022-12-08T09:58:10.312Z,25.20
2022-12-08T10:00:48.040Z,31.38
2022-12-08T10:03:29.101Z,23.60
2022-12-08T10:06:24.876Z,32.42
2022-12-08T10:09:42.173Z,27.63
2022-12-08T10:12:44.742Z,25.27
2022-12-08T10:15:49.468Z,27.60
2022-12-08T10:18:30.905Z,25.15
2022-12-08T10:21:26.033Z,25.65
2022-12-08T10:24:43.521Z,25.20
2022-12-08T10:27:16.154Z,23.65
2022-12-08T10:29:49.090Z,24.63
2022-12-08T10:32:34.066Z,33.97
2022-12-08T10:35:12.975Z,32.58
2022-12-08T10:38:03.957Z,60.63
2022-12-08T10:40:43.819Z,37.83
2022-12-08T10:43:26.183Z,28.45
2022-12-08T10:46:30.696Z,22.70
2022-12-08T10:49:06.623Z,18.02
2022-12-08T10:51:43.584Z,16.30
2022-12-08T10:55:02.447Z,16.88
2022-12-08T10:57:39.192Z,17.42
2022-12-08T11:00:38.836Z,14.25
2022-12-08T11:03:32.294Z,12.93
2022-12-08T11:06:44.653Z,11.85
2022-12-08T11:09:20.205Z,14.95
2022-12-08T11:12:22.416Z,13.13
2022-12-08T11:15:03.485Z,15.07
2022-12-08T11:17:41.264Z,15.45
2022-12-08T11:20:15.399Z,16.67
2022-12-08T11:22:56.522Z,14.73
2022-12-08T11:25:32.370Z,14.40
2022-12-08T11:28:12.605Z,16.02
2022-12-08T11:31:07.269Z,18.02
2022-12-08T11:33:46.852Z,15.57
2022-12-08T11:36:47.504Z,16.23
2022-12-08T11:39:26.868Z,16.10
2022-12-08T11:42:23.405Z,18.67
2022-12-08T11:45:22.090Z,17.33
2022-12-08T11:48:29.470Z,17.10
2022-12-08T11:51:35.148Z,15.55
2022-12-08T11:54:22.188Z,13.77
2022-12-08T11:58:17.070Z,13.50
2022-12-08T12:01:39.392Z,11.18
2022-12-08T12:05:04.709Z,9.52
2022-12-08T12:09:15.132Z,11.90
2022-12-08T12:12:39.659Z,10.25
2022-12-08T12:16:23.831Z,8.98
2022-12-08T12:19:33.577Z,8.98
2022-12-08T12:25:33.809Z,8.50
2022-12-08T12:28:30.604Z,7.70
2022-12-08T12:31:46.714Z,8.80
2022-12-08T12:34:56.252Z,10.80
2022-12-08T12:37:51.558Z,8.45
2022-12-08T12:40:45.469Z,9.27
2022-12-08T12:43:46.147Z,13.38
2022-12-08T12:46:26.887Z,6.80
2022-12-08T12:49:42.441Z,7.32
2022-12-08T12:52:24.060Z,6.93
2022-12-08T12:54:59.498Z,5.35
2022-12-08T12:57:52.109Z,4.82
2022-12-08T13:00:27.924Z,6.05
2022-12-08T13:03:00.786Z,5.70
2022-12-08T13:05:52.211Z,5.88
2022-12-08T13:08:27.971Z,6.13
2022-12-08T13:11:09.772Z,3.90
2022-12-08T13:14:03.595Z,5.53
2022-12-08T13:16:39.774Z,4.82
2022-12-08T13:19:16.336Z,3.72
2022-12-08T13:21:49.006Z,4.88
2022-12-08T13:24:24.471Z,4.35
2022-12-08T13:27:05.962Z,4.00
2022-12-08T13:29:39.960Z,3.50
2022-12-08T13:32:12.398Z,3.38
2022-12-08T13:35:00.200Z,3.90
2022-12-08T13:37:55.260Z,4.50
2022-12-08T13:40:32.043Z,2.53
2022-12-08T13:43:43.501Z,3.00
2022-12-08T13:47:09.924Z,3.20
2022-12-08T14:01:24.697Z,2.80
2022-12-08T14:04:30.883Z,4.07
2022-12-08T14:07:00.805Z,3.78
2022-12-08T14:09:37.197Z,3.35
2022-12-08T14:15:03.794Z,2.95
2022-12-08T14:17:39.494Z,2.70
2022-12-08T14:20:12.110Z,3.83
2022-12-08T14:22:44.720Z,2.50
2022-12-08T14:25:18.389Z,4.22
2022-12-08T14:28:01.208Z,2.92
2022-12-08T14:33:16.779Z,2.30
2022-12-08T14:35:53.700Z,2.65
2022-12-08T14:38:26.793Z,1.95
2022-12-08T14:41:06.678Z,2.83
2022-12-08T14:43:40.884Z,3.20
2022-12-08T14:46:23.370Z,4.28
2022-12-08T14:48:57.934Z,2.08
2022-12-08T14:51:33.176Z,2.00
2022-12-08T14:54:18.754Z,2.50
2022-12-08T14:56:55.418Z,5.60
2022-12-08T14:59:33.231Z,2.13
2022-12-08T15:02:22.623Z,2.47
2022-12-08T15:05:11.249Z,2.20
2022-12-08T15:07:52.602Z,1.65
2022-12-08T15:10:38.035Z,2.60
2022-12-08T15:13:10.435Z,1.70
2022-12-08T15:15:53.907Z,1.55
2022-12-08T15:18:40.703Z,1.83
2022-12-08T15:21:13.291Z,2.25
2022-12-08T15:23:50.316Z,3.13
2022-12-08T15:26:26.192Z,5.70
2022-12-08T15:29:18.908Z,3.30
2022-12-08T15:31:54.925Z,3.42
2022-12-08T15:34:29.238Z,1.92
2022-12-08T15:37:05.000Z,3.55
2022-12-08T15:39:38.664Z,4.88
2022-12-08T15:42:13.118Z,3.53
2022-12-08T15:44:47.781Z,7.82
2022-12-08T15:47:25.858Z,1.98
2022-12-08T15:49:58.495Z,11.40
2022-12-08T15:52:31.149Z,5.25
2022-12-08T15:55:03.910Z,3.92
2022-12-08T15:58:30.836Z,4.68
2022-12-08T16:09:26.261Z,8.88
2022-12-08T16:12:18.149Z,6.75
2022-12-08T16:17:43.353Z,7.15
2022-12-08T16:20:18.130Z,4.07
2022-12-08T16:22:59.292Z,4.57
2022-12-08T16:26:08.909Z,6.15
2022-12-08T16:31:26.238Z,4.65
2022-12-08T16:33:58.972Z,5.72
2022-12-08T16:36:31.789Z,3.83
2022-12-08T16:39:04.418Z,5.18
2022-12-08T16:41:55.517Z,5.78
2022-12-08T16:44:28.153Z,4.90
2022-12-08T16:47:09.779Z,7.40
2022-12-08T16:49:42.351Z,6.05
2022-12-08T16:52:16.434Z,9.80
2022-12-08T16:54:49.064Z,5.07
2022-12-08T16:57:21.585Z,8.43
2022-12-08T16:59:54.236Z,5.57
2022-12-08T17:02:26.793Z,6.13
2022-12-08T17:04:59.472Z,6.10
2022-12-08T17:07:33.968Z,6.07
2022-12-08T17:10:09.190Z,4.88
2022-12-08T17:12:41.969Z,5.03
2022-12-08T17:15:19.391Z,10.45
2022-12-08T17:17:52.767Z,8.45
2022-12-08T17:20:28.341Z,20.95
2022-12-08T17:23:00.804Z,9.80
2022-12-08T17:25:33.399Z,9.77
2022-12-08T17:28:05.961Z,5.80
2022-12-08T17:30:38.766Z,5.03
2022-12-08T17:33:11.328Z,7.80
2022-12-08T17:35:49.011Z,11.40
2022-12-08T17:38:23.520Z,9.80
2022-12-08T17:41:03.348Z,5.05
2022-12-08T17:43:37.379Z,8.05
2022-12-08T17:46:10.010Z,5.90
2022-12-08T17:48:42.645Z,7.70
2022-12-08T17:51:16.417Z,10.00
2022-12-08T17:53:49.011Z,15.10
2022-12-08T17:56:22.004Z,25.42
2022-12-08T17:58:55.127Z,22.20
2022-12-08T18:01:28.011Z,12.15
2022-12-08T18:04:03.189Z,19.23
2022-12-08T18:06:37.621Z,21.77
2022-12-08T18:09:10.370Z,28.20
2022-12-08T18:11:46.126Z,22.85
2022-12-08T18:14:18.704Z,26.65
2022-12-08T18:16:51.448Z,14.98
2022-12-08T18:19:24.356Z,56.95
2022-12-08T18:21:56.975Z,22.15
2022-12-08T18:24:29.807Z,93.97
2022-12-08T18:27:02.563Z,18.27
2022-12-08T18:29:35.132Z,9.90
2022-12-08T18:32:08.404Z,12.88
2022-12-08T18:34:41.000Z,10.38
2022-12-08T18:37:13.550Z,16.27
2022-12-08T18:39:46.104Z,13.45
2022-12-08T18:42:24.986Z,17.80
2022-12-08T18:45:06.844Z,13.10
2022-12-08T18:47:40.720Z,10.10
2022-12-08T18:50:13.362Z,10.32
2022-12-08T18:52:47.071Z,14.50
2022-12-08T18:55:20.047Z,11.63
2022-12-08T18:57:52.650Z,14.05
2022-12-08T19:00:25.230Z,14.20
2022-12-08T19:02:57.807Z,12.82
2022-12-08T19:05:30.381Z,14.15
2022-12-08T19:08:03.779Z,13.82
2022-12-08T19:10:38.498Z,14.60
2022-12-08T19:13:11.144Z,13.13
2022-12-08T19:15:45.718Z,11.80
2022-12-08T19:18:18.634Z,9.27
2022-12-08T19:20:56.656Z,12.80
2022-12-08T19:23:29.364Z,11.60
2022-12-08T19:26:03.989Z,13.65
2022-12-08T19:28:37.184Z,13.25
2022-12-08T19:31:10.565Z,11.77
2022-12-08T19:33:43.306Z,11.68
2022-12-08T19:36:21.097Z,11.30
2022-12-08T19:39:12.406Z,7.50
2022-12-08T19:42:04.271Z,10.25
2022-12-08T19:44:55.109Z,10.77
2022-12-08T19:47:28.026Z,13.55
2022-12-08T19:50:20.121Z,10.90
2022-12-08T19:52:53.067Z,15.23
2022-12-08T19:55:27.059Z,9.52
2022-12-08T19:58:02.097Z,12.13
2022-12-08T20:00:36.766Z,18.60
2022-12-08T20:03:15.396Z,15.45
2022-12-08T20:05:51.154Z,10.40
2022-12-08T20:08:23.767Z,11.40
2022-12-08T20:10:58.959Z,16.67
2022-12-08T20:13:47.853Z,14.75
2022-12-08T20:16:20.765Z,13.88
2022-12-08T20:18:53.367Z,10.48
2022-12-08T20:21:26.018Z,9.50
2022-12-08T20:23:58.766Z,25.45
2022-12-08T20:26:34.047Z,108.40
2022-12-08T20:29:07.137Z,77.65
2022-12-08T20:31:40.189Z,31.95
2022-12-08T20:34:18.282Z,12.35
2022-12-08T20:36:50.823Z,15.38
2022-12-08T20:39:23.727Z,15.38
2022-12-08T20:41:56.669Z,19.42
2022-12-08T20:44:30.133Z,21.63
2022-12-08T20:47:03.077Z,15.95
2022-12-08T20:49:35.956Z,17.08
2022-12-08T20:52:09.453Z,18.63
2022-12-08T20:54:42.267Z,19.50
2022-12-08T20:57:14.845Z,13.30
2022-12-08T20:59:47.792Z,14.48
2022-12-08T21:02:20.651Z,13.20
2022-12-08T21:04:54.298Z,13.98
2022-12-08T21:07:26.962Z,14.15
2022-12-08T21:09:59.662Z,19.08
2022-12-08T21:12:32.303Z,16.17
2022-12-08T21:15:07.788Z,13.07
2022-12-08T21:17:40.924Z,15.82
2022-12-08T21:20:13.649Z,15.20
2022-12-08T21:22:46.475Z,17.63
2022-12-08T21:25:19.259Z,17.85
2022-12-08T21:27:51.731Z,17.45
2022-12-08T21:30:24.407Z,15.50
2022-12-08T21:32:57.075Z,32.85
2022-12-08T21:35:30.018Z,67.07
2022-12-08T21:38:06.450Z,27.75
2022-12-08T21:40:39.329Z,27.17
2022-12-08T21:43:13.705Z,27.55
2022-12-08T21:45:46.363Z,36.90
2022-12-08T21:48:19.171Z,26.85
2022-12-08T21:50:53.426Z,20.85
2022-12-08T21:53:26.601Z,26.73
2022-12-08T21:55:59.514Z,31.67
2022-12-08T21:58:32.703Z,22.52
2022-12-08T22:01:11.502Z,35.03
2022-12-08T22:03:44.667Z,31.17
2022-12-08T22:06:17.686Z,41.13
2022-12-08T22:08:50.488Z,34.75
2022-12-08T22:11:23.686Z,18.27
2022-12-08T22:13:56.392Z,17.75
2022-12-08T22:16:29.094Z,19.42
2022-12-08T22:19:02.014Z,22.83
2022-12-08T22:21:34.820Z,36.35
2022-12-08T22:24:08.290Z,28.23
2022-12-08T22:26:40.956Z,39.70
2022-12-08T22:29:14.112Z,33.20
2022-12-08T22:31:46.716Z,18.40
2022-12-08T22:34:19.540Z,18.73
2022-12-08T22:36:52.106Z,22.27
2022-12-08T22:39:24.711Z,20.27
2022-12-08T22:41:57.157Z,29.85
2022-12-08T22:44:29.761Z,52.00
2022-12-08T22:47:02.319Z,57.30
2022-12-08T22:49:36.392Z,30.55
2022-12-08T22:52:09.135Z,22.48
2022-12-08T22:54:41.951Z,26.83
2022-12-08T22:57:14.906Z,22.38
2022-12-08T22:59:47.435Z,28.98
2022-12-08T23:02:20.153Z,35.50
2022-12-08T23:04:57.578Z,23.50
2022-12-08T23:07:30.683Z,25.45
2022-12-08T23:10:04.129Z,21.48
2022-12-08T23:12:37.102Z,20.27
2022-12-08T23:15:10.059Z,17.20
2022-12-08T23:17:42.931Z,18.90
2022-12-08T23:20:15.619Z,19.77
2022-12-08T23:22:48.132Z,21.48
2022-12-08T23:25:20.625Z,21.42
2022-12-08T23:27:53.340Z,19.52
2022-12-08T23:30:26.216Z,18.63
2022-12-08T23:32:59.359Z,16.85
2022-12-08T23:35:32.179Z,19.85
2022-12-08T23:38:05.106Z,16.88
2022-12-08T23:40:37.621Z,14.88
2022-12-08T23:43:10.133Z,19.17
2022-12-08T23:45:43.393Z,18.23
2022-12-08T23:48:16.005Z,18.08
2022-12-08T23:50:48.660Z,20.38
2022-12-08T23:53:21.643Z,25.48
2022-12-08T23:56:07.835Z,16.15
2022-12-08T23:58:41.697Z,16.45
